Terminal Aerodrome Forecast
Issued by NWS

Home | Current Version | Previous Version | Text Only | Print | Product List | Glossary On
Versions: 1 2 3 4 5 6 7 8 9 10 11 12 13 14 15 16 17 18 19 20 21 22 23 24 25 26 27 28 29 30 31 32 33 34 35 36 37 38 39 40 41 42 43 44 45 46 47
667
FTUS41 KBGM 240536
TAFITH
TAF
KITH 240536Z 2406/2506 16015KT 6SM BR OVC035 WS020/21045KT
     FM240800 18011KT 3SM -RA BR OVC013 WS020/21040KT
     FM241400 29008KT 1SM -SN OVC009
     FM241700 31010KT P6SM -SN OVC015
     FM242000 31011G21KT P6SM OVC025
     FM250300 28008KT P6SM BKN035=

USA.gov is the U.S. government's official web portal to all federal, state and local government web resources and services.